sensor_id;sensor_type;location;lat;lon;timestamp;P1;durP1;ratioP1;P2;durP2;ratioP2
9976;SDS011;5029;47.378;11.776;2023-01-19T00:04:59;8.60;;;7.67;;
9976;SDS011;5029;47.378;11.776;2023-01-19T00:10:05;9.20;;;8.40;;
9976;SDS011;5029;47.378;11.776;2023-01-19T00:15:09;8.97;;;8.07;;
9976;SDS011;5029;47.378;11.776;2023-01-19T00:20:15;7.80;;;7.07;;
9976;SDS011;5029;47.378;11.776;2023-01-19T00:25:19;7.10;;;5.57;;
9976;SDS011;5029;47.378;11.776;2023-01-19T00:30:22;8.13;;;7.33;;
9976;SDS011;5029;47.378;11.776;2023-01-19T00:35:27;9.27;;;8.43;;
9976;SDS011;5029;47.378;11.776;2023-01-19T00:40:31;9.10;;;8.27;;
9976;SDS011;5029;47.378;11.776;2023-01-19T00:45:34;10.30;;;9.20;;
9976;SDS011;5029;47.378;11.776;2023-01-19T00:50:39;8.80;;;8.00;;
9976;SDS011;5029;47.378;11.776;2023-01-19T00:55:43;10.17;;;9.20;;
9976;SDS011;5029;47.378;11.776;2023-01-19T01:00:46;8.83;;;7.33;;
9976;SDS011;5029;47.378;11.776;2023-01-19T01:05:51;9.00;;;8.13;;
9976;SDS011;5029;47.378;11.776;2023-01-19T01:10:55;9.83;;;8.50;;
9976;SDS011;5029;47.378;11.776;2023-01-19T01:15:58;8.70;;;7.90;;
9976;SDS011;5029;47.378;11.776;2023-01-19T01:21:03;9.83;;;8.93;;
9976;SDS011;5029;47.378;11.776;2023-01-19T01:26:08;8.63;;;7.83;;
9976;SDS011;5029;47.378;11.776;2023-01-19T01:31:11;8.73;;;7.83;;
9976;SDS011;5029;47.378;11.776;2023-01-19T01:36:16;9.70;;;8.80;;
9976;SDS011;5029;47.378;11.776;2023-01-19T01:41:21;8.97;;;8.07;;
9976;SDS011;5029;47.378;11.776;2023-01-19T01:46:27;9.27;;;8.37;;
9976;SDS011;5029;47.378;11.776;2023-01-19T01:51:36;9.83;;;8.93;;
9976;SDS011;5029;47.378;11.776;2023-01-19T01:56:43;9.07;;;8.23;;
9976;SDS011;5029;47.378;11.776;2023-01-19T02:01:48;9.47;;;8.47;;
9976;SDS011;5029;47.378;11.776;2023-01-19T02:07:13;9.93;;;8.93;;
9976;SDS011;5029;47.378;11.776;2023-01-19T02:12:38;9.30;;;8.40;;
9976;SDS011;5029;47.378;11.776;2023-01-19T02:18:00;10.50;;;9.37;;
9976;SDS011;5029;47.378;11.776;2023-01-19T02:23:06;10.80;;;9.57;;
9976;SDS011;5029;47.378;11.776;2023-01-19T02:28:17;9.43;;;8.53;;
9976;SDS011;5029;47.378;11.776;2023-01-19T02:33:21;10.30;;;9.23;;
9976;SDS011;5029;47.378;11.776;2023-01-19T02:38:24;10.20;;;9.20;;
9976;SDS011;5029;47.378;11.776;2023-01-19T02:43:31;11.40;;;10.30;;
9976;SDS011;5029;47.378;11.776;2023-01-19T02:48:36;11.77;;;9.37;;
9976;SDS011;5029;47.378;11.776;2023-01-19T02:53:55;10.10;;;9.00;;
9976;SDS011;5029;47.378;11.776;2023-01-19T02:59:18;8.90;;;8.10;;
9976;SDS011;5029;47.378;11.776;2023-01-19T03:04:32;11.80;;;10.60;;
9976;SDS011;5029;47.378;11.776;2023-01-19T03:09:47;9.07;;;8.17;;
9976;SDS011;5029;47.378;11.776;2023-01-19T03:14:56;10.60;;;9.53;;
9976;SDS011;5029;47.378;11.776;2023-01-19T03:20:03;10.83;;;9.40;;
9976;SDS011;5029;47.378;11.776;2023-01-19T03:25:08;8.67;;;7.87;;
9976;SDS011;5029;47.378;11.776;2023-01-19T03:30:15;8.17;;;7.40;;
9976;SDS011;5029;47.378;11.776;2023-01-19T03:35:23;9.77;;;8.67;;
9976;SDS011;5029;47.378;11.776;2023-01-19T03:40:31;11.07;;;9.97;;
9976;SDS011;5029;47.378;11.776;2023-01-19T03:45:38;10.73;;;9.63;;
9976;SDS011;5029;47.378;11.776;2023-01-19T03:50:42;8.20;;;7.40;;
9976;SDS011;5029;47.378;11.776;2023-01-19T03:55:46;9.40;;;8.50;;
9976;SDS011;5029;47.378;11.776;2023-01-19T04:00:53;9.23;;;8.17;;
9976;SDS011;5029;47.378;11.776;2023-01-19T04:05:57;8.57;;;7.67;;
9976;SDS011;5029;47.378;11.776;2023-01-19T04:11:00;8.93;;;7.97;;
9976;SDS011;5029;47.378;11.776;2023-01-19T04:16:05;8.00;;;7.23;;
9976;SDS011;5029;47.378;11.776;2023-01-19T04:21:09;9.07;;;8.17;;
9976;SDS011;5029;47.378;11.776;2023-01-19T04:26:12;9.53;;;8.53;;
9976;SDS011;5029;47.378;11.776;2023-01-19T04:31:17;10.57;;;8.53;;
9976;SDS011;5029;47.378;11.776;2023-01-19T04:36:21;10.07;;;9.07;;
9976;SDS011;5029;47.378;11.776;2023-01-19T04:41:24;10.07;;;9.17;;
9976;SDS011;5029;47.378;11.776;2023-01-19T04:46:31;9.93;;;8.93;;
9976;SDS011;5029;47.378;11.776;2023-01-19T04:51:35;9.83;;;8.63;;
9976;SDS011;5029;47.378;11.776;2023-01-19T04:56:38;10.47;;;9.40;;
9976;SDS011;5029;47.378;11.776;2023-01-19T05:01:43;10.13;;;8.90;;
9976;SDS011;5029;47.378;11.776;2023-01-19T05:06:47;10.57;;;9.50;;
9976;SDS011;5029;47.378;11.776;2023-01-19T05:11:50;9.27;;;8.37;;
9976;SDS011;5029;47.378;11.776;2023-01-19T05:16:55;10.40;;;9.40;;
9976;SDS011;5029;47.378;11.776;2023-01-19T05:22:00;11.20;;;9.93;;
9976;SDS011;5029;47.378;11.776;2023-01-19T05:27:04;10.63;;;9.53;;
9976;SDS011;5029;47.378;11.776;2023-01-19T05:32:09;17.50;;;15.20;;
9976;SDS011;5029;47.378;11.776;2023-01-19T05:37:14;12.97;;;11.43;;
9976;SDS011;5029;47.378;11.776;2023-01-19T05:42:17;11.13;;;9.40;;
9976;SDS011;5029;47.378;11.776;2023-01-19T05:47:22;12.00;;;10.80;;
9976;SDS011;5029;47.378;11.776;2023-01-19T05:52:25;9.70;;;7.87;;
9976;SDS011;5029;47.378;11.776;2023-01-19T05:57:29;12.80;;;11.50;;
9976;SDS011;5029;47.378;11.776;2023-01-19T06:02:34;10.93;;;9.83;;
9976;SDS011;5029;47.378;11.776;2023-01-19T06:07:37;12.40;;;11.10;;
9976;SDS011;5029;47.378;11.776;2023-01-19T06:12:40;12.03;;;10.87;;
9976;SDS011;5029;47.378;11.776;2023-01-19T06:17:46;11.47;;;10.33;;
9976;SDS011;5029;47.378;11.776;2023-01-19T06:22:49;12.73;;;10.70;;
9976;SDS011;5029;47.378;11.776;2023-01-19T06:27:52;12.17;;;10.87;;
9976;SDS011;5029;47.378;11.776;2023-01-19T06:32:57;11.23;;;10.13;;
9976;SDS011;5029;47.378;11.776;2023-01-19T06:38:01;11.53;;;9.77;;
9976;SDS011;5029;47.378;11.776;2023-01-19T06:43:06;10.87;;;9.77;;
9976;SDS011;5029;47.378;11.776;2023-01-19T06:48:11;10.43;;;9.27;;
9976;SDS011;5029;47.378;11.776;2023-01-19T06:53:15;10.60;;;9.60;;
9976;SDS011;5029;47.378;11.776;2023-01-19T06:58:21;10.80;;;9.70;;
9976;SDS011;5029;47.378;11.776;2023-01-19T07:03:25;10.40;;;9.30;;
9976;SDS011;5029;47.378;11.776;2023-01-19T07:08:29;10.47;;;9.37;;
9976;SDS011;5029;47.378;11.776;2023-01-19T07:13:33;10.13;;;9.13;;
9976;SDS011;5029;47.378;11.776;2023-01-19T07:18:39;9.40;;;8.50;;
9976;SDS011;5029;47.378;11.776;2023-01-19T07:23:42;8.33;;;7.17;;
9976;SDS011;5029;47.378;11.776;2023-01-19T07:28:46;7.57;;;6.77;;
9976;SDS011;5029;47.378;11.776;2023-01-19T07:33:51;8.50;;;7.43;;
9976;SDS011;5029;47.378;11.776;2023-01-19T07:38:54;7.60;;;6.43;;
9976;SDS011;5029;47.378;11.776;2023-01-19T07:43:58;7.33;;;6.60;;
9976;SDS011;5029;47.378;11.776;2023-01-19T07:49:02;6.93;;;5.70;;
9976;SDS011;5029;47.378;11.776;2023-01-19T07:54:06;6.80;;;6.20;;
9976;SDS011;5029;47.378;11.776;2023-01-19T07:59:09;7.63;;;6.93;;
9976;SDS011;5029;47.378;11.776;2023-01-19T08:04:14;9.03;;;7.17;;
9976;SDS011;5029;47.378;11.776;2023-01-19T08:09:19;7.30;;;6.60;;
9976;SDS011;5029;47.378;11.776;2023-01-19T08:14:24;6.80;;;5.70;;
9976;SDS011;5029;47.378;11.776;2023-01-19T08:19:29;9.03;;;6.40;;
9976;SDS011;5029;47.378;11.776;2023-01-19T08:24:32;5.63;;;5.07;;
9976;SDS011;5029;47.378;11.776;2023-01-19T08:29:36;6.00;;;5.40;;
9976;SDS011;5029;47.378;11.776;2023-01-19T08:34:40;4.57;;;3.70;;
9976;SDS011;5029;47.378;11.776;2023-01-19T08:39:44;5.60;;;5.10;;
9976;SDS011;5029;47.378;11.776;2023-01-19T08:44:47;6.70;;;5.10;;
9976;SDS011;5029;47.378;11.776;2023-01-19T08:50:00;6.70;;;5.63;;
9976;SDS011;5029;47.378;11.776;2023-01-19T08:55:04;6.83;;;5.83;;
9976;SDS011;5029;47.378;11.776;2023-01-19T09:00:10;4.97;;;4.47;;
9976;SDS011;5029;47.378;11.776;2023-01-19T09:05:16;6.43;;;4.87;;
9976;SDS011;5029;47.378;11.776;2023-01-19T09:10:20;5.33;;;4.83;;
9976;SDS011;5029;47.378;11.776;2023-01-19T09:15:23;4.87;;;4.40;;
9976;SDS011;5029;47.378;11.776;2023-01-19T09:20:28;5.30;;;4.40;;
9976;SDS011;5029;47.378;11.776;2023-01-19T09:25:31;4.43;;;3.90;;
9976;SDS011;5029;47.378;11.776;2023-01-19T09:30:35;5.10;;;4.60;;
9976;SDS011;5029;47.378;11.776;2023-01-19T09:35:42;5.77;;;5.23;;
9976;SDS011;5029;47.378;11.776;2023-01-19T09:40:47;6.73;;;4.90;;
9976;SDS011;5029;47.378;11.776;2023-01-19T09:45:53;5.10;;;4.60;;
9976;SDS011;5029;47.378;11.776;2023-01-19T09:51:02;5.23;;;3.83;;
9976;SDS011;5029;47.378;11.776;2023-01-19T09:56:10;4.70;;;4.30;;
9976;SDS011;5029;47.378;11.776;2023-01-19T10:01:22;5.53;;;4.60;;
9976;SDS011;5029;47.378;11.776;2023-01-19T10:06:40;5.30;;;4.80;;
9976;SDS011;5029;47.378;11.776;2023-01-19T10:11:44;5.23;;;4.37;;
9976;SDS011;5029;47.378;11.776;2023-01-19T10:16:56;5.47;;;4.80;;
9976;SDS011;5029;47.378;11.776;2023-01-19T10:22:13;5.87;;;5.03;;
9976;SDS011;5029;47.378;11.776;2023-01-19T10:27:23;5.73;;;5.17;;
9976;SDS011;5029;47.378;11.776;2023-01-19T10:32:30;6.67;;;5.67;;
9976;SDS011;5029;47.378;11.776;2023-01-19T10:37:37;6.70;;;4.93;;
9976;SDS011;5029;47.378;11.776;2023-01-19T10:42:42;5.03;;;4.50;;
9976;SDS011;5029;47.378;11.776;2023-01-19T10:47:46;7.13;;;4.53;;
9976;SDS011;5029;47.378;11.776;2023-01-19T10:52:51;6.63;;;5.10;;
9976;SDS011;5029;47.378;11.776;2023-01-19T10:57:57;7.00;;;4.87;;
9976;SDS011;5029;47.378;11.776;2023-01-19T11:03:01;5.50;;;5.00;;
9976;SDS011;5029;47.378;11.776;2023-01-19T11:08:12;5.60;;;5.00;;
9976;SDS011;5029;47.378;11.776;2023-01-19T11:13:24;6.30;;;5.43;;
9976;SDS011;5029;47.378;11.776;2023-01-19T11:18:28;7.33;;;5.80;;
9976;SDS011;5029;47.378;11.776;2023-01-19T11:23:35;6.53;;;5.77;;
9976;SDS011;5029;47.378;11.776;2023-01-19T11:28:44;6.70;;;5.20;;
9976;SDS011;5029;47.378;11.776;2023-01-19T11:33:52;5.80;;;5.10;;
9976;SDS011;5029;47.378;11.776;2023-01-19T11:38:59;5.70;;;5.17;;
9976;SDS011;5029;47.378;11.776;2023-01-19T11:44:17;5.57;;;5.07;;
9976;SDS011;5029;47.378;11.776;2023-01-19T11:49:26;5.60;;;4.83;;
9976;SDS011;5029;47.378;11.776;2023-01-19T11:54:42;7.80;;;5.80;;
9976;SDS011;5029;47.378;11.776;2023-01-19T11:59:51;5.93;;;5.10;;
9976;SDS011;5029;47.378;11.776;2023-01-19T12:04:55;6.83;;;5.87;;
9976;SDS011;5029;47.378;11.776;2023-01-19T12:10:17;18.07;;;12.97;;
9976;SDS011;5029;47.378;11.776;2023-01-19T12:15:28;5.07;;;4.53;;
9976;SDS011;5029;47.378;11.776;2023-01-19T12:20:35;5.97;;;5.37;;
9976;SDS011;5029;47.378;11.776;2023-01-19T12:25:45;4.87;;;4.00;;
9976;SDS011;5029;47.378;11.776;2023-01-19T12:31:01;6.37;;;4.70;;
9976;SDS011;5029;47.378;11.776;2023-01-19T12:36:08;5.10;;;4.60;;
9976;SDS011;5029;47.378;11.776;2023-01-19T12:41:35;7.90;;;4.60;;
9976;SDS011;5029;47.378;11.776;2023-01-19T12:46:40;6.70;;;4.40;;
9976;SDS011;5029;47.378;11.776;2023-01-19T12:51:44;4.60;;;4.20;;
9976;SDS011;5029;47.378;11.776;2023-01-19T12:56:51;5.17;;;4.67;;
9976;SDS011;5029;47.378;11.776;2023-01-19T13:13:19;6.43;;;4.27;;
9976;SDS011;5029;47.378;11.776;2023-01-19T13:18:24;5.83;;;4.40;;
9976;SDS011;5029;47.378;11.776;2023-01-19T13:23:50;4.50;;;3.90;;
9976;SDS011;5029;47.378;11.776;2023-01-19T13:28:57;5.10;;;4.00;;
9976;SDS011;5029;47.378;11.776;2023-01-19T13:34:09;11.53;;;10.00;;
9976;SDS011;5029;47.378;11.776;2023-01-19T13:39:15;4.00;;;3.57;;
9976;SDS011;5029;47.378;11.776;2023-01-19T13:44:26;4.30;;;3.90;;
9976;SDS011;5029;47.378;11.776;2023-01-19T13:49:32;6.00;;;4.30;;
9976;SDS011;5029;47.378;11.776;2023-01-19T13:54:45;4.97;;;3.73;;
9976;SDS011;5029;47.378;11.776;2023-01-19T14:00:02;5.53;;;4.73;;
9976;SDS011;5029;47.378;11.776;2023-01-19T14:05:11;4.53;;;4.13;;
9976;SDS011;5029;47.378;11.776;2023-01-19T14:10:15;6.07;;;4.60;;
9976;SDS011;5029;47.378;11.776;2023-01-19T14:15:21;4.73;;;4.33;;
9976;SDS011;5029;47.378;11.776;2023-01-19T14:20:27;5.30;;;4.37;;
9976;SDS011;5029;47.378;11.776;2023-01-19T14:25:33;5.73;;;4.10;;
9976;SDS011;5029;47.378;11.776;2023-01-19T14:30:40;3.93;;;3.60;;
9976;SDS011;5029;47.378;11.776;2023-01-19T14:35:55;4.50;;;4.10;;
9976;SDS011;5029;47.378;11.776;2023-01-19T14:40:58;4.20;;;3.40;;
9976;SDS011;5029;47.378;11.776;2023-01-19T14:46:06;4.70;;;4.13;;
9976;SDS011;5029;47.378;11.776;2023-01-19T14:51:17;4.33;;;3.93;;
9976;SDS011;5029;47.378;11.776;2023-01-19T14:56:23;7.50;;;5.50;;
9976;SDS011;5029;47.378;11.776;2023-01-19T15:01:29;6.07;;;4.70;;
9976;SDS011;5029;47.378;11.776;2023-01-19T15:06:33;5.23;;;4.73;;
9976;SDS011;5029;47.378;11.776;2023-01-19T15:11:44;5.37;;;4.43;;
9976;SDS011;5029;47.378;11.776;2023-01-19T15:16:51;5.87;;;5.20;;
9976;SDS011;5029;47.378;11.776;2023-01-19T15:21:55;5.13;;;4.63;;
9976;SDS011;5029;47.378;11.776;2023-01-19T15:26:58;5.50;;;4.50;;
9976;SDS011;5029;47.378;11.776;2023-01-19T15:32:04;4.97;;;4.20;;
9976;SDS011;5029;47.378;11.776;2023-01-19T15:37:12;4.93;;;4.10;;
9976;SDS011;5029;47.378;11.776;2023-01-19T15:42:15;4.73;;;4.27;;
9976;SDS011;5029;47.378;11.776;2023-01-19T15:47:20;7.10;;;4.37;;
9976;SDS011;5029;47.378;11.776;2023-01-19T15:52:24;5.10;;;4.60;;
9976;SDS011;5029;47.378;11.776;2023-01-19T15:57:27;6.33;;;5.73;;
9976;SDS011;5029;47.378;11.776;2023-01-19T16:02:32;5.07;;;4.23;;
9976;SDS011;5029;47.378;11.776;2023-01-19T16:07:35;5.33;;;4.53;;
9976;SDS011;5029;47.378;11.776;2023-01-19T16:12:39;7.73;;;4.73;;
9976;SDS011;5029;47.378;11.776;2023-01-19T16:17:44;6.27;;;4.77;;
9976;SDS011;5029;47.378;11.776;2023-01-19T16:22:47;5.93;;;4.63;;
9976;SDS011;5029;47.378;11.776;2023-01-19T16:27:51;7.23;;;5.50;;
9976;SDS011;5029;47.378;11.776;2023-01-19T16:32:56;4.77;;;4.27;;
9976;SDS011;5029;47.378;11.776;2023-01-19T16:37:59;5.37;;;4.87;;
9976;SDS011;5029;47.378;11.776;2023-01-19T16:43:03;8.47;;;5.10;;
9976;SDS011;5029;47.378;11.776;2023-01-19T16:48:08;6.80;;;6.13;;
9976;SDS011;5029;47.378;11.776;2023-01-19T16:53:11;7.67;;;5.50;;
9976;SDS011;5029;47.378;11.776;2023-01-19T16:58:15;5.87;;;5.27;;
9976;SDS011;5029;47.378;11.776;2023-01-19T17:03:20;6.37;;;3.90;;
9976;SDS011;5029;47.378;11.776;2023-01-19T17:08:23;5.23;;;4.13;;
9976;SDS011;5029;47.378;11.776;2023-01-19T17:13:36;4.10;;;3.60;;
9976;SDS011;5029;47.378;11.776;2023-01-19T17:18:42;4.83;;;3.83;;
9976;SDS011;5029;47.378;11.776;2023-01-19T17:23:47;5.17;;;4.67;;
9976;SDS011;5029;47.378;11.776;2023-01-19T17:28:56;6.03;;;4.87;;
9976;SDS011;5029;47.378;11.776;2023-01-19T17:34:06;4.60;;;4.20;;
9976;SDS011;5029;47.378;11.776;2023-01-19T17:39:11;4.93;;;4.40;;
9976;SDS011;5029;47.378;11.776;2023-01-19T17:44:18;5.97;;;5.37;;
9976;SDS011;5029;47.378;11.776;2023-01-19T17:49:24;5.73;;;5.13;;
9976;SDS011;5029;47.378;11.776;2023-01-19T17:54:29;6.17;;;5.37;;
9976;SDS011;5029;47.378;11.776;2023-01-19T17:59:35;7.23;;;5.33;;
9976;SDS011;5029;47.378;11.776;2023-01-19T18:04:46;6.87;;;5.30;;
9976;SDS011;5029;47.378;11.776;2023-01-19T18:09:51;6.73;;;5.57;;
9976;SDS011;5029;47.378;11.776;2023-01-19T18:15:00;6.07;;;5.47;;
9976;SDS011;5029;47.378;11.776;2023-01-19T18:20:06;7.50;;;5.80;;
9976;SDS011;5029;47.378;11.776;2023-01-19T18:25:14;5.70;;;5.10;;
9976;SDS011;5029;47.378;11.776;2023-01-19T18:30:19;6.27;;;5.33;;
9976;SDS011;5029;47.378;11.776;2023-01-19T18:35:26;5.70;;;5.20;;
9976;SDS011;5029;47.378;11.776;2023-01-19T18:40:33;6.83;;;5.03;;
9976;SDS011;5029;47.378;11.776;2023-01-19T18:45:38;7.00;;;5.67;;
9976;SDS011;5029;47.378;11.776;2023-01-19T18:50:46;6.53;;;5.60;;
9976;SDS011;5029;47.378;11.776;2023-01-19T18:55:50;8.70;;;5.60;;
9976;SDS011;5029;47.378;11.776;2023-01-19T19:00:56;6.23;;;5.07;;
9976;SDS011;5029;47.378;11.776;2023-01-19T19:06:04;6.83;;;5.57;;
9976;SDS011;5029;47.378;11.776;2023-01-19T19:11:10;7.00;;;6.07;;
9976;SDS011;5029;47.378;11.776;2023-01-19T19:16:15;8.03;;;5.63;;
9976;SDS011;5029;47.378;11.776;2023-01-19T19:21:21;9.23;;;5.33;;
9976;SDS011;5029;47.378;11.776;2023-01-19T19:26:28;7.90;;;5.67;;
9976;SDS011;5029;47.378;11.776;2023-01-19T19:31:46;6.03;;;5.40;;
9976;SDS011;5029;47.378;11.776;2023-01-19T19:36:53;6.57;;;5.20;;
9976;SDS011;5029;47.378;11.776;2023-01-19T19:42:01;5.33;;;4.53;;
9976;SDS011;5029;47.378;11.776;2023-01-19T19:47:06;7.53;;;4.93;;
9976;SDS011;5029;47.378;11.776;2023-01-19T19:52:14;6.83;;;5.37;;
9976;SDS011;5029;47.378;11.776;2023-01-19T19:57:19;5.10;;;4.60;;
9976;SDS011;5029;47.378;11.776;2023-01-19T20:02:24;5.23;;;4.43;;
9976;SDS011;5029;47.378;11.776;2023-01-19T20:07:30;5.97;;;4.40;;
9976;SDS011;5029;47.378;11.776;2023-01-19T20:12:37;4.57;;;4.17;;
9976;SDS011;5029;47.378;11.776;2023-01-19T20:17:43;4.30;;;3.90;;
9976;SDS011;5029;47.378;11.776;2023-01-19T20:22:56;4.70;;;4.03;;
9976;SDS011;5029;47.378;11.776;2023-01-19T20:28:02;4.63;;;4.17;;
9976;SDS011;5029;47.378;11.776;2023-01-19T20:33:08;4.23;;;3.83;;
9976;SDS011;5029;47.378;11.776;2023-01-19T20:38:14;4.67;;;4.00;;
9976;SDS011;5029;47.378;11.776;2023-01-19T20:43:20;4.23;;;3.67;;
9976;SDS011;5029;47.378;11.776;2023-01-19T20:48:26;4.63;;;3.80;;
9976;SDS011;5029;47.378;11.776;2023-01-19T20:53:33;6.37;;;4.40;;
9976;SDS011;5029;47.378;11.776;2023-01-19T20:58:37;4.80;;;4.30;;
9976;SDS011;5029;47.378;11.776;2023-01-19T21:03:44;4.60;;;3.93;;
9976;SDS011;5029;47.378;11.776;2023-01-19T21:08:50;4.60;;;4.10;;
9976;SDS011;5029;47.378;11.776;2023-01-19T21:13:54;4.87;;;3.77;;
9976;SDS011;5029;47.378;11.776;2023-01-19T21:18:58;5.47;;;3.90;;
9976;SDS011;5029;47.378;11.776;2023-01-19T21:24:04;5.43;;;4.00;;
9976;SDS011;5029;47.378;11.776;2023-01-19T21:29:08;4.00;;;3.30;;
9976;SDS011;5029;47.378;11.776;2023-01-19T21:34:14;4.77;;;3.57;;
9976;SDS011;5029;47.378;11.776;2023-01-19T21:39:19;4.03;;;3.17;;
9976;SDS011;5029;47.378;11.776;2023-01-19T21:44:23;4.10;;;3.07;;
9976;SDS011;5029;47.378;11.776;2023-01-19T21:49:26;4.77;;;3.07;;
9976;SDS011;5029;47.378;11.776;2023-01-19T21:54:37;3.63;;;2.57;;
9976;SDS011;5029;47.378;11.776;2023-01-19T21:59:40;3.23;;;2.57;;
9976;SDS011;5029;47.378;11.776;2023-01-19T22:04:43;3.20;;;2.43;;
9976;SDS011;5029;47.378;11.776;2023-01-19T22:09:48;3.37;;;2.57;;
9976;SDS011;5029;47.378;11.776;2023-01-19T22:14:52;3.00;;;2.63;;
9976;SDS011;5029;47.378;11.776;2023-01-19T22:19:55;4.63;;;2.80;;
9976;SDS011;5029;47.378;11.776;2023-01-19T22:25:00;3.20;;;2.73;;
9976;SDS011;5029;47.378;11.776;2023-01-19T22:30:06;4.03;;;3.03;;
9976;SDS011;5029;47.378;11.776;2023-01-19T22:35:10;3.07;;;2.77;;
9976;SDS011;5029;47.378;11.776;2023-01-19T22:40:16;2.80;;;2.60;;
9976;SDS011;5029;47.378;11.776;2023-01-19T22:45:20;3.63;;;2.43;;
9976;SDS011;5029;47.378;11.776;2023-01-19T22:50:24;3.40;;;2.60;;
9976;SDS011;5029;47.378;11.776;2023-01-19T22:55:29;2.60;;;1.93;;
9976;SDS011;5029;47.378;11.776;2023-01-19T23:00:33;3.10;;;1.80;;
9976;SDS011;5029;47.378;11.776;2023-01-19T23:05:36;2.70;;;1.70;;
9976;SDS011;5029;47.378;11.776;2023-01-19T23:10:41;2.50;;;2.13;;
9976;SDS011;5029;47.378;11.776;2023-01-19T23:15:44;3.23;;;2.40;;
9976;SDS011;5029;47.378;11.776;2023-01-19T23:20:47;2.50;;;2.00;;
9976;SDS011;5029;47.378;11.776;2023-01-19T23:25:52;3.33;;;2.30;;
9976;SDS011;5029;47.378;11.776;2023-01-19T23:31:11;2.53;;;1.90;;
9976;SDS011;5029;47.378;11.776;2023-01-19T23:36:15;3.40;;;2.17;;
9976;SDS011;5029;47.378;11.776;2023-01-19T23:41:21;2.37;;;2.13;;
9976;SDS011;5029;47.378;11.776;2023-01-19T23:46:25;2.00;;;1.80;;
9976;SDS011;5029;47.378;11.776;2023-01-19T23:51:30;2.73;;;1.70;;
9976;SDS011;5029;47.378;11.776;2023-01-19T23:56:35;2.47;;;1.87;;
